Time;durP1;ratioP1;P1;durP2;ratioP2;P2;SDS_P1;SDS_P2;PMS_P1;PMS_P2;Temp;Humidity;BMP_temperature;BMP_pressure;BME280_temperature;BME280_humidity;BME280_pressure;Samples;Min_cycle;Max_cycle;Signal;HPM_P1;HPM_P2
2023/10/14 00:01:06;;;;;;;14.27;5.65;;;;;;;;;;4963305;28;20124;-72
2023/10/14 00:03:35;;;;;;;13.70;6.50;;;;;;;;;;4967198;28;20375;-71
2023/10/14 00:06:07;;;;;;;14.00;6.97;;;;;;;;;;4962433;28;20081;-71
2023/10/14 00:11:22;;;;;;;14.40;6.80;;;;;;;;;;4963166;28;20170;-72
2023/10/14 00:13:49;;;;;;;14.38;6.93;;;;;;;;;;4964150;28;20508;-72
2023/10/14 00:16:25;;;;;;;11.60;6.45;;;;;;;;;;4964758;28;20180;-71
2023/10/14 00:18:52;;;;;;;17.33;7.18;;;;;;;;;;4964550;28;20093;-71
2023/10/14 00:21:18;;;;;;;13.55;6.40;;;;;;;;;;4962681;28;20039;-72
2023/10/14 00:23:44;;;;;;;11.93;5.82;;;;;;;;;;4981521;28;20026;-72
2023/10/14 00:26:20;;;;;;;12.45;5.88;;;;;;;;;;4960730;28;20497;-73
2023/10/14 00:28:46;;;;;;;12.82;5.75;;;;;;;;;;4967054;28;20072;-72
2023/10/14 00:31:15;;;;;;;12.05;6.13;;;;;;;;;;4962770;28;20479;-71
2023/10/14 00:33:45;;;;;;;14.20;6.88;;;;;;;;;;4977341;28;20570;-72
2023/10/14 00:36:16;;;;;;;13.20;6.90;;;;;;;;;;4962707;28;20179;-71
2023/10/14 00:38:45;;;;;;;14.55;7.20;;;;;;;;;;4965130;28;20022;-72
2023/10/14 00:41:12;;;;;;;14.05;7.55;;;;;;;;;;4959578;28;20036;-72
2023/10/14 00:43:39;;;;;;;15.55;7.47;;;;;;;;;;4965215;28;20363;-71
2023/10/14 00:46:14;;;;;;;13.48;7.82;;;;;;;;;;4959895;28;20045;-72
2023/10/14 00:48:44;;;;;;;11.20;6.75;;;;;;;;;;4965164;28;20390;-72
2023/10/14 00:51:11;;;;;;;15.75;7.13;;;;;;;;;;4958583;28;20319;-72
2023/10/14 00:53:51;;;;;;;12.90;6.68;;;;;;;;;;4962446;28;20034;-73
2023/10/14 00:56:19;;;;;;;12.75;6.13;;;;;;;;;;4963249;28;20066;-73
2023/10/14 00:58:50;;;;;;;11.38;6.22;;;;;;;;;;4964866;28;20072;-73
2023/10/14 01:01:17;;;;;;;12.73;6.82;;;;;;;;;;4959137;28;20050;-72
2023/10/14 01:03:48;;;;;;;14.55;6.50;;;;;;;;;;4961186;28;20070;-72
2023/10/14 01:06:34;;;;;;;14.82;6.38;;;;;;;;;;4973450;28;20038;-73
2023/10/14 01:09:10;;;;;;;15.85;6.55;;;;;;;;;;4958570;28;20022;-72
2023/10/14 01:11:41;;;;;;;12.98;6.78;;;;;;;;;;4962978;28;20457;-73
2023/10/14 01:14:08;;;;;;;13.18;6.50;;;;;;;;;;4956044;28;20318;-73
2023/10/14 01:16:37;;;;;;;11.70;6.28;;;;;;;;;;4964073;28;20034;-73
2023/10/14 01:19:05;;;;;;;13.38;6.40;;;;;;;;;;4959775;28;20329;-72
2023/10/14 01:21:38;;;;;;;12.85;6.05;;;;;;;;;;4965946;28;20667;-72
2023/10/14 01:24:15;;;;;;;13.25;7.03;;;;;;;;;;4961060;28;20557;-73
2023/10/14 01:26:48;;;;;;;11.93;6.63;;;;;;;;;;4961641;28;20114;-73
2023/10/14 01:29:15;;;;;;;12.82;6.35;;;;;;;;;;4960924;28;20098;-73
2023/10/14 01:32:10;;;;;;;12.20;6.75;;;;;;;;;;4977866;28;20132;-72
2023/10/14 01:34:42;;;;;;;13.80;6.85;;;;;;;;;;4964364;28;20141;-72
2023/10/14 01:37:19;;;;;;;12.93;6.38;;;;;;;;;;4959541;28;20108;-72
2023/10/14 01:39:49;;;;;;;11.82;6.38;;;;;;;;;;4964417;28;20124;-72
2023/10/14 01:42:19;;;;;;;13.15;6.20;;;;;;;;;;4959892;28;20022;-72
2023/10/14 01:44:45;;;;;;;15.73;7.15;;;;;;;;;;4965679;28;20056;-72
2023/10/14 01:47:11;;;;;;;16.27;6.70;;;;;;;;;;4975577;28;20030;-72
2023/10/14 01:49:37;;;;;;;12.98;7.70;;;;;;;;;;4966231;28;20104;-72
2023/10/14 01:52:08;;;;;;;15.10;7.22;;;;;;;;;;4959400;28;20371;-71
2023/10/14 01:54:34;;;;;;;14.32;6.63;;;;;;;;;;4965126;28;20501;-71
2023/10/14 01:57:00;;;;;;;13.63;7.03;;;;;;;;;;4965074;28;20129;-71
2023/10/14 01:59:27;;;;;;;13.88;6.60;;;;;;;;;;4956213;28;20253;-70
2023/10/14 02:01:57;;;;;;;14.40;6.85;;;;;;;;;;4977589;28;20073;-70
2023/10/14 02:04:25;;;;;;;14.15;6.05;;;;;;;;;;4958970;28;20324;-70
2023/10/14 02:07:13;;;;;;;14.90;6.75;;;;;;;;;;4963004;28;20022;-72
2023/10/14 02:09:37;;;;;;;13.07;6.90;;;;;;;;;;4962499;28;20112;-70
2023/10/14 02:12:03;;;;;;;14.65;6.85;;;;;;;;;;4962996;28;20807;-74
2023/10/14 02:14:29;;;;;;;13.88;6.75;;;;;;;;;;4962108;28;20031;-72
2023/10/14 02:16:55;;;;;;;14.75;7.05;;;;;;;;;;4966086;28;20556;-70
2023/10/14 02:19:36;;;;;;;12.38;6.63;;;;;;;;;;4960744;28;20542;-72
2023/10/14 02:22:03;;;;;;;14.77;6.90;;;;;;;;;;4966145;28;20034;-73
2023/10/14 02:24:29;;;;;;;12.68;7.07;;;;;;;;;;4964681;28;20480;-72
2023/10/14 02:26:57;;;;;;;17.45;6.95;;;;;;;;;;4965630;28;20019;-72
2023/10/14 02:29:24;;;;;;;16.05;7.40;;;;;;;;;;4963712;28;20540;-71
2023/10/14 02:31:51;;;;;;;18.88;6.72;;;;;;;;;;4959774;28;20536;-72
2023/10/14 02:34:18;;;;;;;13.85;6.63;;;;;;;;;;4974208;28;20046;-71
2023/10/14 02:36:51;;;;;;;13.15;6.40;;;;;;;;;;4963370;28;20802;-70
2023/10/14 02:39:22;;;;;;;12.75;6.15;;;;;;;;;;4958843;28;20034;-70
2023/10/14 02:44:32;;;;;;;14.63;6.50;;;;;;;;;;4963269;28;20442;-72
2023/10/14 02:47:05;;;;;;;16.50;6.82;;;;;;;;;;4963250;28;20635;-70
2023/10/14 02:49:38;;;;;;;11.57;5.95;;;;;;;;;;4960823;28;20548;-71
2023/10/14 02:52:09;;;;;;;12.13;6.18;;;;;;;;;;4958565;28;20052;-74
2023/10/14 02:54:36;;;;;;;13.70;6.07;;;;;;;;;;4957705;28;20130;-73
2023/10/14 02:57:12;;;;;;;12.80;5.13;;;;;;;;;;4957420;28;20035;-74
2023/10/14 03:02:25;;;;;;;11.43;5.90;;;;;;;;;;4960177;28;20080;-71
2023/10/14 03:07:30;;;;;;;14.82;6.45;;;;;;;;;;4961430;28;20478;-73
2023/10/14 03:10:10;;;;;;;13.57;6.72;;;;;;;;;;4965747;28;20547;-73
2023/10/14 03:12:57;;;;;;;17.08;6.28;;;;;;;;;;4958460;28;20027;-74
2023/10/14 03:15:22;;;;;;;12.23;6.10;;;;;;;;;;4962251;28;20116;-72
2023/10/14 03:17:58;;;;;;;14.25;6.53;;;;;;;;;;4967202;28;20625;-71
2023/10/14 03:23:17;;;;;;;13.25;5.80;;;;;;;;;;4962719;28;19989;-71
2023/10/14 03:25:44;;;;;;;15.80;6.13;;;;;;;;;;4964569;28;20033;-71
2023/10/14 03:30:37;;;;;;;15.98;5.75;;;;;;;;;;4964668;28;20034;-72
2023/10/14 03:33:10;;;;;;;14.40;5.75;;;;;;;;;;4975830;28;20026;-73
2023/10/14 03:35:37;;;;;;;11.65;6.05;;;;;;;;;;4964031;28;20137;-73
2023/10/14 03:43:15;;;;;;;14.23;5.97;;;;;;;;;;4959027;28;20053;-74
2023/10/14 03:45:48;;;;;;;14.55;6.50;;;;;;;;;;4960869;28;20124;-72
2023/10/14 03:48:15;;;;;;;17.35;6.38;;;;;;;;;;4959148;28;20050;-73
2023/10/14 03:50:41;;;;;;;14.73;5.88;;;;;;;;;;4961254;28;20064;-72
2023/10/14 03:53:07;;;;;;;16.65;5.85;;;;;;;;;;4961884;28;20023;-72
2023/10/14 03:55:33;;;;;;;13.60;8.15;;;;;;;;;;4966174;28;20034;-73
2023/10/14 03:58:03;;;;;;;15.32;7.60;;;;;;;;;;4963857;28;20052;-74
2023/10/14 04:00:39;;;;;;;15.15;6.85;;;;;;;;;;4964089;28;20035;-71
2023/10/14 04:03:11;;;;;;;16.40;6.50;;;;;;;;;;4960969;28;20054;-71
2023/10/14 04:05:38;;;;;;;17.35;6.75;;;;;;;;;;4981637;28;20337;-71
2023/10/14 04:08:05;;;;;;;13.23;6.07;;;;;;;;;;4963157;28;20027;-71
2023/10/14 04:10:40;;;;;;;13.20;6.00;;;;;;;;;;4966498;28;20073;-71
2023/10/14 04:13:13;;;;;;;12.48;6.25;;;;;;;;;;4962613;28;20022;-71
2023/10/14 04:15:49;;;;;;;17.20;6.10;;;;;;;;;;4983894;28;20030;-71
2023/10/14 04:18:21;;;;;;;12.35;5.82;;;;;;;;;;4960424;28;20026;-71
2023/10/14 04:20:58;;;;;;;13.38;5.63;;;;;;;;;;4966578;28;20061;-73
2023/10/14 04:23:29;;;;;;;12.55;5.53;;;;;;;;;;4965536;28;20027;-71
2023/10/14 04:26:03;;;;;;;14.45;6.13;;;;;;;;;;4978646;28;20057;-71
2023/10/14 04:28:38;;;;;;;15.57;6.38;;;;;;;;;;4960493;28;20232;-71
2023/10/14 04:31:09;;;;;;;17.63;6.15;;;;;;;;;;4961976;28;20619;-70
2023/10/14 04:33:44;;;;;;;12.63;5.60;;;;;;;;;;4977748;28;20285;-70
2023/10/14 04:38:42;;;;;;;12.10;5.30;;;;;;;;;;4965296;28;20060;-71
2023/10/14 04:41:13;;;;;;;16.13;6.15;;;;;;;;;;4979156;28;20144;-71
2023/10/14 04:44:02;;;;;;;13.27;5.78;;;;;;;;;;4980035;28;20954;-71
2023/10/14 04:46:32;;;;;;;15.18;5.95;;;;;;;;;;4964299;28;20133;-70
2023/10/14 04:48:59;;;;;;;16.02;5.25;;;;;;;;;;4968429;28;20729;-70
2023/10/14 04:51:36;;;;;;;11.70;5.10;;;;;;;;;;4963705;28;20337;-70
2023/10/14 04:54:02;;;;;;;11.98;4.88;;;;;;;;;;4959491;28;20027;-71
2023/10/14 04:56:33;;;;;;;13.50;4.90;;;;;;;;;;4962319;28;20133;-71
2023/10/14 04:59:00;;;;;;;9.88;4.93;;;;;;;;;;4961908;28;21068;-71
2023/10/14 05:01:27;;;;;;;12.07;4.57;;;;;;;;;;4961242;28;20051;-71
2023/10/14 05:03:57;;;;;;;14.20;5.07;;;;;;;;;;4961264;28;20568;-71
2023/10/14 05:06:29;;;;;;;15.07;5.25;;;;;;;;;;4960275;28;20192;-71
2023/10/14 05:08:55;;;;;;;10.60;4.60;;;;;;;;;;4958780;28;20564;-71
2023/10/14 05:11:25;;;;;;;12.98;5.65;;;;;;;;;;4960210;28;20243;-71
2023/10/14 05:17:14;;;;;;;16.35;5.75;;;;;;;;;;4952965;28;20464;-71
2023/10/14 05:19:43;;;;;;;18.23;6.30;;;;;;;;;;4965310;28;20107;-70
2023/10/14 05:22:19;;;;;;;16.27;6.38;;;;;;;;;;4960614;28;20034;-72
2023/10/14 05:24:49;;;;;;;13.82;4.95;;;;;;;;;;4982762;28;20487;-70
2023/10/14 05:27:17;;;;;;;18.00;6.70;;;;;;;;;;4961569;28;20027;-71
2023/10/14 05:29:50;;;;;;;16.35;6.57;;;;;;;;;;4977557;28;20030;-73
2023/10/14 05:32:23;;;;;;;16.08;7.13;;;;;;;;;;4958156;28;20385;-70
2023/10/14 05:34:50;;;;;;;17.35;8.43;;;;;;;;;;4959013;28;20494;-70
2023/10/14 05:37:16;;;;;;;19.08;8.68;;;;;;;;;;4960670;28;20543;-71
2023/10/14 05:39:43;;;;;;;16.52;8.18;;;;;;;;;;4962289;28;20031;-72
2023/10/14 05:42:17;;;;;;;15.52;7.88;;;;;;;;;;4964262;28;20033;-72
2023/10/14 05:44:57;;;;;;;15.13;7.63;;;;;;;;;;4980469;28;20026;-72
2023/10/14 05:47:27;;;;;;;14.38;7.15;;;;;;;;;;4963180;28;20381;-72
2023/10/14 05:49:53;;;;;;;13.70;6.53;;;;;;;;;;4959198;28;20019;-72
2023/10/14 05:52:24;;;;;;;17.15;6.72;;;;;;;;;;4960789;28;20085;-72
2023/10/14 05:54:50;;;;;;;13.68;7.45;;;;;;;;;;4963591;28;20587;-72
2023/10/14 05:57:17;;;;;;;14.68;7.18;;;;;;;;;;4954367;28;20548;-71
2023/10/14 05:59:44;;;;;;;14.73;6.97;;;;;;;;;;4961110;28;21033;-70
2023/10/14 06:02:13;;;;;;;15.68;7.55;;;;;;;;;;4959741;28;20063;-71
2023/10/14 06:04:39;;;;;;;16.05;7.05;;;;;;;;;;4963611;28;20940;-71
2023/10/14 06:07:09;;;;;;;15.05;6.38;;;;;;;;;;4955448;28;20311;-71
2023/10/14 06:09:39;;;;;;;16.20;6.15;;;;;;;;;;4961844;28;20783;-71
2023/10/14 06:12:06;;;;;;;13.52;6.28;;;;;;;;;;4975402;28;20482;-71
2023/10/14 06:14:35;;;;;;;18.20;6.75;;;;;;;;;;4962501;28;20037;-71
2023/10/14 06:17:01;;;;;;;14.70;8.02;;;;;;;;;;4958795;28;20086;-71
2023/10/14 06:19:27;;;;;;;16.90;10.20;;;;;;;;;;4959081;28;20093;-71
2023/10/14 06:21:56;;;;;;;18.58;9.43;;;;;;;;;;4964248;28;20484;-71
2023/10/14 06:24:22;;;;;;;19.77;11.95;;;;;;;;;;4957254;28;20306;-71
2023/10/14 06:26:48;;;;;;;18.98;10.70;;;;;;;;;;4962303;28;20030;-72
2023/10/14 06:29:14;;;;;;;19.00;10.63;;;;;;;;;;4974149;28;20022;-71
2023/10/14 06:31:41;;;;;;;20.45;9.35;;;;;;;;;;4959879;28;20069;-71
2023/10/14 06:34:10;;;;;;;17.10;8.23;;;;;;;;;;4959505;28;20026;-71
2023/10/14 06:36:36;;;;;;;16.73;7.30;;;;;;;;;;4960562;28;20404;-71
2023/10/14 06:39:13;;;;;;;11.90;5.20;;;;;;;;;;4961045;28;20084;-73
2023/10/14 06:41:45;;;;;;;9.98;4.80;;;;;;;;;;4975674;28;20468;-72
2023/10/14 06:44:15;;;;;;;11.30;5.30;;;;;;;;;;4956382;28;20060;-72
2023/10/14 06:46:44;;;;;;;13.10;5.00;;;;;;;;;;4959264;28;20388;-71
2023/10/14 06:49:13;;;;;;;37.25;7.90;;;;;;;;;;4956514;28;20061;-72
2023/10/14 06:51:46;;;;;;;25.50;7.50;;;;;;;;;;4961930;28;20022;-71
2023/10/14 06:54:14;;;;;;;32.63;6.60;;;;;;;;;;4961894;28;20027;-72
2023/10/14 06:56:44;;;;;;;25.10;5.90;;;;;;;;;;4955692;28;20107;-71
2023/10/14 06:59:13;;;;;;;29.52;7.90;;;;;;;;;;4956181;28;20217;-71
2023/10/14 07:01:39;;;;;;;23.20;5.93;;;;;;;;;;4974770;28;20058;-71
2023/10/14 07:04:06;;;;;;;10.65;4.15;;;;;;;;;;4954444;28;20386;-71
2023/10/14 07:06:32;;;;;;;18.98;6.40;;;;;;;;;;4963426;28;20034;-73
2023/10/14 07:09:00;;;;;;;12.70;4.75;;;;;;;;;;4977731;28;20605;-72
2023/10/14 07:11:27;;;;;;;12.77;4.18;;;;;;;;;;4961589;28;20038;-73
2023/10/14 07:13:53;;;;;;;22.58;6.53;;;;;;;;;;4961044;28;20354;-71
2023/10/14 07:16:19;;;;;;;15.45;6.07;;;;;;;;;;4960714;28;20109;-71
2023/10/14 07:18:45;;;;;;;17.17;6.70;;;;;;;;;;4975758;28;20042;-71
2023/10/14 07:21:14;;;;;;;14.52;5.38;;;;;;;;;;4958404;28;20038;-71
2023/10/14 07:23:40;;;;;;;19.23;6.20;;;;;;;;;;4959835;28;20045;-71
2023/10/14 07:26:11;;;;;;;17.58;6.85;;;;;;;;;;4977430;28;20034;-71
2023/10/14 07:28:42;;;;;;;16.63;7.03;;;;;;;;;;4965595;28;20030;-71
2023/10/14 07:31:10;;;;;;;15.95;6.18;;;;;;;;;;4980829;28;20110;-71
2023/10/14 07:33:38;;;;;;;14.93;6.45;;;;;;;;;;4967248;28;20085;-71
2023/10/14 07:36:06;;;;;;;14.48;6.60;;;;;;;;;;4963542;28;20034;-71
2023/10/14 07:38:36;;;;;;;14.75;6.55;;;;;;;;;;4960138;28;20030;-71
2023/10/14 07:41:03;;;;;;;15.55;5.80;;;;;;;;;;4963301;28;20096;-71
2023/10/14 07:43:29;;;;;;;13.68;5.78;;;;;;;;;;4976975;28;20392;-71
2023/10/14 07:45:58;;;;;;;14.63;5.72;;;;;;;;;;4963050;28;20591;-71
2023/10/14 07:48:24;;;;;;;13.23;5.53;;;;;;;;;;4963385;28;20125;-71
2023/10/14 07:50:50;;;;;;;10.88;4.80;;;;;;;;;;4965576;28;20046;-72
2023/10/14 07:53:22;;;;;;;11.45;4.63;;;;;;;;;;4963796;28;20026;-71
2023/10/14 07:55:49;;;;;;;15.48;5.45;;;;;;;;;;4968580;28;20030;-71
2023/10/14 07:58:16;;;;;;;12.20;5.00;;;;;;;;;;4959865;28;20511;-71
2023/10/14 08:00:48;;;;;;;12.38;4.63;;;;;;;;;;4963524;28;20121;-71
2023/10/14 08:03:16;;;;;;;15.20;4.43;;;;;;;;;;4975754;28;20038;-71
2023/10/14 08:05:44;;;;;;;11.90;3.70;;;;;;;;;;4963232;28;20421;-71
2023/10/14 08:08:11;;;;;;;16.58;4.72;;;;;;;;;;4963073;28;20382;-71
2023/10/14 08:10:42;;;;;;;14.45;4.60;;;;;;;;;;4964703;28;20030;-72
2023/10/14 08:13:09;;;;;;;15.27;4.65;;;;;;;;;;4962276;28;20034;-71
2023/10/14 08:15:36;;;;;;;10.82;4.35;;;;;;;;;;4962043;28;20587;-71
2023/10/14 08:18:06;;;;;;;12.27;4.70;;;;;;;;;;4965914;28;20027;-72
2023/10/14 08:20:33;;;;;;;14.18;5.80;;;;;;;;;;4966813;28;20038;-72
2023/10/14 08:22:59;;;;;;;13.80;5.43;;;;;;;;;;4964363;28;20026;-72
2023/10/14 08:25:26;;;;;;;13.55;6.05;;;;;;;;;;4961995;28;20069;-72
2023/10/14 08:27:53;;;;;;;13.40;5.85;;;;;;;;;;4965986;28;20057;-72
2023/10/14 08:30:24;;;;;;;11.93;4.95;;;;;;;;;;4961970;28;20463;-72
2023/10/14 08:32:50;;;;;;;13.93;5.60;;;;;;;;;;4961019;28;20031;-72
2023/10/14 08:35:17;;;;;;;10.95;4.97;;;;;;;;;;4959062;28;20030;-72
2023/10/14 08:37:48;;;;;;;13.95;4.93;;;;;;;;;;4963780;28;20027;-72
2023/10/14 08:40:19;;;;;;;11.02;4.70;;;;;;;;;;4975582;28;20200;-72
2023/10/14 08:42:55;;;;;;;12.25;4.65;;;;;;;;;;4977737;28;20579;-72
2023/10/14 08:45:21;;;;;;;;;;;;;;;;;;4960041;28;20068;-71
2023/10/14 08:47:50;;;;;;;11.75;4.22;;;;;;;;;;4960810;28;19915;-71
2023/10/14 08:50:18;;;;;;;12.07;4.50;;;;;;;;;;4959899;28;20576;-73
2023/10/14 08:52:45;;;;;;;12.80;4.43;;;;;;;;;;4964531;28;20026;-72
2023/10/14 08:55:20;;;;;;;11.32;4.13;;;;;;;;;;4974238;28;20034;-71
2023/10/14 08:57:48;;;;;;;11.95;4.40;;;;;;;;;;4965137;28;20039;-72
2023/10/14 09:00:23;;;;;;;9.43;3.40;;;;;;;;;;4958803;28;20261;-71
2023/10/14 09:02:51;;;;;;;12.15;4.57;;;;;;;;;;4976744;28;20568;-72
2023/10/14 09:05:18;;;;;;;15.85;4.22;;;;;;;;;;4961394;28;20030;-71
2023/10/14 09:07:45;;;;;;;11.00;4.05;;;;;;;;;;4962943;28;20076;-72
2023/10/14 09:10:11;;;;;;;11.38;3.35;;;;;;;;;;4961610;28;20636;-71
2023/10/14 09:12:39;;;;;;;8.98;3.50;;;;;;;;;;4978487;28;20349;-72
2023/10/14 09:15:06;;;;;;;14.05;3.80;;;;;;;;;;4961682;28;20511;-72
2023/10/14 09:17:32;;;;;;;10.57;3.47;;;;;;;;;;4963023;28;20774;-72
2023/10/14 09:19:58;;;;;;;19.13;4.63;;;;;;;;;;4966944;28;20442;-72
2023/10/14 09:22:25;;;;;;;29.70;6.10;;;;;;;;;;4977055;28;20572;-72
2023/10/14 09:24:52;;;;;;;15.23;4.18;;;;;;;;;;4965212;28;20034;-72
2023/10/14 09:27:20;;;;;;;13.18;4.45;;;;;;;;;;4977995;28;20026;-72
2023/10/14 09:29:46;;;;;;;16.13;4.43;;;;;;;;;;4962518;28;20421;-71
2023/10/14 09:32:13;;;;;;;14.32;4.60;;;;;;;;;;4962588;28;20333;-72
2023/10/14 09:34:41;;;;;;;13.65;3.92;;;;;;;;;;4961866;28;20113;-72
2023/10/14 09:37:12;;;;;;;10.57;3.55;;;;;;;;;;4977232;28;20061;-72
2023/10/14 09:39:41;;;;;;;11.20;4.22;;;;;;;;;;4965239;28;20345;-71
2023/10/14 09:42:11;;;;;;;10.82;4.40;;;;;;;;;;4962168;28;20033;-72
2023/10/14 09:44:44;;;;;;;20.70;5.20;;;;;;;;;;4964645;28;20042;-71
2023/10/14 09:47:14;;;;;;;12.45;3.92;;;;;;;;;;4963468;28;20072;-72
2023/10/14 09:49:40;;;;;;;14.52;4.07;;;;;;;;;;4960347;28;20072;-72
2023/10/14 09:52:07;;;;;;;22.45;5.57;;;;;;;;;;4959813;28;20304;-71
2023/10/14 09:54:34;;;;;;;17.27;4.45;;;;;;;;;;4965871;28;20528;-72
2023/10/14 09:57:00;;;;;;;12.73;4.22;;;;;;;;;;4962713;28;20030;-72
2023/10/14 09:59:30;;;;;;;10.20;3.75;;;;;;;;;;4979386;28;20440;-71
2023/10/14 10:01:57;;;;;;;12.48;4.60;;;;;;;;;;4979230;28;20043;-72
2023/10/14 10:04:26;;;;;;;35.80;6.95;;;;;;;;;;4961295;28;20035;-72
2023/10/14 10:07:04;;;;;;;30.52;6.30;;;;;;;;;;4966162;28;20042;-72
2023/10/14 10:09:49;;;;;;;13.75;4.20;;;;;;;;;;4966055;28;20663;-71
2023/10/14 10:12:17;;;;;;;22.63;5.22;;;;;;;;;;4963185;28;20459;-71
2023/10/14 10:14:43;;;;;;;13.95;4.18;;;;;;;;;;4965023;28;20038;-71
2023/10/14 10:17:13;;;;;;;12.07;4.32;;;;;;;;;;4975494;28;20117;-72
2023/10/14 10:19:58;;;;;;;12.38;4.18;;;;;;;;;;4978291;28;20042;-72
2023/10/14 10:22:24;;;;;;;12.75;4.00;;;;;;;;;;4961650;28;20495;-72
2023/10/14 10:24:50;;;;;;;11.90;3.90;;;;;;;;;;4963806;28;20108;-72
2023/10/14 10:27:16;;;;;;;9.95;3.63;;;;;;;;;;4963800;28;20535;-72
2023/10/14 10:29:46;;;;;;;10.25;3.72;;;;;;;;;;4966786;28;20200;-72
2023/10/14 10:32:17;;;;;;;11.82;3.72;;;;;;;;;;4961177;28;20088;-72
2023/10/14 10:35:02;;;;;;;10.60;4.10;;;;;;;;;;4964594;28;20034;-72
2023/10/14 10:37:28;;;;;;;14.68;4.13;;;;;;;;;;4964816;28;20041;-71
2023/10/14 10:39:54;;;;;;;22.08;4.88;;;;;;;;;;4963309;28;20041;-73
2023/10/14 10:42:20;;;;;;;12.52;4.00;;;;;;;;;;4961094;28;20034;-71
2023/10/14 10:44:47;;;;;;;14.20;4.47;;;;;;;;;;4962102;28;20031;-72
2023/10/14 10:47:15;;;;;;;14.05;4.22;;;;;;;;;;4960385;28;20034;-73
2023/10/14 10:49:50;;;;;;;13.38;4.32;;;;;;;;;;4981128;28;20031;-73
2023/10/14 10:52:16;;;;;;;15.88;4.40;;;;;;;;;;4964774;28;20484;-73
2023/10/14 10:54:43;;;;;;;15.43;4.30;;;;;;;;;;4962312;28;20414;-73
2023/10/14 10:57:13;;;;;;;11.77;3.90;;;;;;;;;;4960922;28;20559;-73
2023/10/14 10:59:40;;;;;;;9.38;3.63;;;;;;;;;;4963074;28;20112;-73
2023/10/14 11:02:10;;;;;;;13.05;4.20;;;;;;;;;;4960963;28;20050;-74
2023/10/14 11:04:36;;;;;;;9.90;3.92;;;;;;;;;;4965877;28;20196;-72
2023/10/14 11:07:03;;;;;;;11.90;3.97;;;;;;;;;;4961955;28;20137;-73
2023/10/14 11:09:39;;;;;;;13.85;4.20;;;;;;;;;;4963667;28;20595;-73
2023/10/14 11:12:09;;;;;;;29.13;5.95;;;;;;;;;;4960359;28;20030;-72
2023/10/14 11:14:35;;;;;;;14.55;4.00;;;;;;;;;;4960856;28;20459;-72
2023/10/14 11:17:02;;;;;;;10.10;3.78;;;;;;;;;;4961815;28;20045;-72
2023/10/14 11:19:32;;;;;;;25.95;4.68;;;;;;;;;;4961348;28;20038;-72
2023/10/14 11:21:59;;;;;;;26.10;5.13;;;;;;;;;;4963217;28;20039;-73
2023/10/14 11:24:25;;;;;;;14.40;4.28;;;;;;;;;;4963913;28;20133;-74
2023/10/14 11:26:53;;;;;;;13.32;4.50;;;;;;;;;;4964551;28;20377;-71
2023/10/14 11:29:23;;;;;;;12.05;4.18;;;;;;;;;;4960457;28;20018;-72
2023/10/14 11:31:53;;;;;;;10.18;3.42;;;;;;;;;;4964705;28;20058;-72
2023/10/14 11:34:20;;;;;;;14.23;3.97;;;;;;;;;;4962345;28;20630;-72
2023/10/14 11:36:50;;;;;;;14.63;4.40;;;;;;;;;;4963435;28;20030;-72
2023/10/14 11:39:18;;;;;;;55.63;8.70;;;;;;;;;;4978021;28;20114;-72
2023/10/14 11:41:46;;;;;;;19.00;5.07;;;;;;;;;;4979340;28;20041;-72
2023/10/14 11:44:17;;;;;;;12.02;3.97;;;;;;;;;;4963931;28;20443;-71
2023/10/14 11:46:44;;;;;;;19.20;4.38;;;;;;;;;;4965585;28;20605;-72
2023/10/14 11:49:10;;;;;;;15.88;3.95;;;;;;;;;;4960054;28;20026;-72
2023/10/14 11:51:40;;;;;;;12.02;3.50;;;;;;;;;;4964403;28;20037;-72
2023/10/14 11:54:07;;;;;;;10.93;3.72;;;;;;;;;;4960029;28;20465;-72
2023/10/14 11:56:33;;;;;;;10.95;3.58;;;;;;;;;;4973948;28;20039;-72
2023/10/14 11:59:04;;;;;;;11.50;3.55;;;;;;;;;;4979685;28;20152;-72
2023/10/14 12:01:34;;;;;;;14.15;4.25;;;;;;;;;;4961381;28;20141;-72
2023/10/14 12:04:00;;;;;;;10.20;3.75;;;;;;;;;;4965514;28;20038;-72
2023/10/14 12:06:29;;;;;;;10.65;3.75;;;;;;;;;;4965464;28;20109;-72
2023/10/14 12:08:56;;;;;;;12.05;3.50;;;;;;;;;;4959579;28;20065;-72
2023/10/14 12:11:22;;;;;;;9.52;3.22;;;;;;;;;;4962264;28;20367;-72
2023/10/14 12:13:48;;;;;;;10.60;3.58;;;;;;;;;;4967288;28;20481;-72
2023/10/14 12:16:15;;;;;;;11.27;3.83;;;;;;;;;;4978040;28;20487;-72
2023/10/14 12:18:43;;;;;;;10.50;3.35;;;;;;;;;;4965741;28;20044;-72
2023/10/14 12:21:09;;;;;;;10.30;3.38;;;;;;;;;;4964032;28;20033;-71
2023/10/14 12:23:36;;;;;;;10.68;3.40;;;;;;;;;;4967476;28;20157;-72
2023/10/14 12:26:02;;;;;;;10.48;3.65;;;;;;;;;;4981960;28;20459;-72
2023/10/14 12:28:30;;;;;;;11.20;4.05;;;;;;;;;;4971233;28;20050;-72
2023/10/14 12:31:03;;;;;;;12.25;3.75;;;;;;;;;;4975860;28;20034;-72
2023/10/14 12:33:35;;;;;;;9.50;3.20;;;;;;;;;;4967708;28;20038;-72
2023/10/14 12:36:14;;;;;;;11.75;3.92;;;;;;;;;;4982751;28;20034;-73
2023/10/14 12:38:42;;;;;;;11.35;3.85;;;;;;;;;;4965423;28;20038;-72
2023/10/14 12:41:09;;;;;;;10.70;3.58;;;;;;;;;;4978800;28;20053;-72
2023/10/14 12:43:39;;;;;;;10.82;3.45;;;;;;;;;;4961544;28;20095;-72
2023/10/14 12:46:14;;;;;;;10.68;3.40;;;;;;;;;;4963310;28;20107;-73
2023/10/14 12:48:42;;;;;;;12.90;3.65;;;;;;;;;;4967188;28;20039;-72
2023/10/14 12:51:11;;;;;;;10.82;3.78;;;;;;;;;;4961641;28;20027;-73
2023/10/14 12:53:37;;;;;;;10.65;3.92;;;;;;;;;;4966373;28;20329;-73
2023/10/14 12:56:05;;;;;;;10.27;3.40;;;;;;;;;;4965943;28;20132;-73
2023/10/14 12:58:34;;;;;;;11.55;3.72;;;;;;;;;;4962988;28;20043;-73
2023/10/14 13:01:07;;;;;;;9.65;3.55;;;;;;;;;;4963541;28;20255;-73
2023/10/14 13:03:35;;;;;;;12.57;4.03;;;;;;;;;;4969088;28;20098;-73
2023/10/14 13:06:01;;;;;;;13.88;3.63;;;;;;;;;;4963464;28;20062;-73
2023/10/14 13:08:30;;;;;;;9.75;3.58;;;;;;;;;;4969180;28;20124;-72
2023/10/14 13:10:57;;;;;;;11.50;3.90;;;;;;;;;;4963889;28;20022;-73
2023/10/14 13:13:23;;;;;;;11.38;4.38;;;;;;;;;;4959975;28;20030;-73
2023/10/14 13:15:53;;;;;;;11.63;3.70;;;;;;;;;;4961100;28;20561;-72
2023/10/14 13:18:22;;;;;;;12.52;4.07;;;;;;;;;;4959412;28;20035;-71
2023/10/14 13:20:50;;;;;;;11.70;3.40;;;;;;;;;;4962496;28;20760;-74
2023/10/14 13:23:16;;;;;;;13.60;4.18;;;;;;;;;;4961389;28;20109;-74
2023/10/14 13:25:45;;;;;;;12.85;3.90;;;;;;;;;;4966081;28;20037;-74
2023/10/14 13:28:13;;;;;;;10.00;3.40;;;;;;;;;;4964103;28;20493;-73
2023/10/14 13:30:50;;;;;;;10.32;3.45;;;;;;;;;;4964389;28;20842;-72
2023/10/14 13:33:16;;;;;;;11.77;3.40;;;;;;;;;;4980640;28;20030;-74
2023/10/14 13:35:43;;;;;;;10.00;3.70;;;;;;;;;;4966244;28;20042;-73
2023/10/14 13:38:13;;;;;;;10.68;3.58;;;;;;;;;;4976808;28;20463;-72
2023/10/14 13:40:40;;;;;;;11.05;3.70;;;;;;;;;;4964237;28;20801;-73
2023/10/14 13:43:06;;;;;;;14.20;3.97;;;;;;;;;;4962846;28;20417;-73
2023/10/14 13:45:32;;;;;;;15.23;3.80;;;;;;;;;;4962026;28;20580;-72
2023/10/14 13:48:08;;;;;;;13.68;3.72;;;;;;;;;;4959590;28;20062;-72
2023/10/14 13:50:37;;;;;;;10.27;3.35;;;;;;;;;;4963438;28;20161;-72
2023/10/14 13:53:21;;;;;;;10.52;3.47;;;;;;;;;;4975670;28;20029;-72
2023/10/14 13:55:54;;;;;;;13.07;3.85;;;;;;;;;;4959355;28;20054;-72
2023/10/14 13:58:21;;;;;;;12.02;3.80;;;;;;;;;;4956818;28;20093;-72
2023/10/14 14:00:50;;;;;;;11.48;3.85;;;;;;;;;;4962037;28;20022;-72
2023/10/14 14:03:16;;;;;;;12.90;3.88;;;;;;;;;;4973168;28;20393;-72
2023/10/14 14:05:51;;;;;;;12.15;3.67;;;;;;;;;;4960991;28;20026;-72
2023/10/14 14:08:18;;;;;;;14.23;3.50;;;;;;;;;;4955616;28;20050;-72
2023/10/14 14:10:45;;;;;;;10.82;3.92;;;;;;;;;;4963907;28;20600;-73
2023/10/14 14:13:19;;;;;;;10.27;3.75;;;;;;;;;;4957609;28;20029;-72
2023/10/14 14:15:45;;;;;;;11.73;4.05;;;;;;;;;;4962271;28;20382;-73
2023/10/14 14:18:12;;;;;;;10.13;3.67;;;;;;;;;;4959861;28;20355;-72
2023/10/14 14:20:40;;;;;;;9.55;3.40;;;;;;;;;;4961644;28;20037;-73
2023/10/14 14:23:06;;;;;;;10.90;3.78;;;;;;;;;;4961727;28;20022;-72
2023/10/14 14:25:33;;;;;;;9.27;3.55;;;;;;;;;;4962078;28;20133;-72
2023/10/14 14:28:03;;;;;;;12.00;4.03;;;;;;;;;;4962998;28;20427;-71
2023/10/14 14:30:30;;;;;;;16.50;5.28;;;;;;;;;;4963124;28;20481;-71
2023/10/14 14:32:57;;;;;;;12.10;4.22;;;;;;;;;;4979499;28;20026;-71
2023/10/14 14:35:27;;;;;;;12.23;4.47;;;;;;;;;;4962347;28;20830;-71
2023/10/14 14:37:53;;;;;;;12.45;5.38;;;;;;;;;;4962417;28;20030;-72
2023/10/14 14:40:24;;;;;;;14.10;4.20;;;;;;;;;;4959872;28;20081;-72
2023/10/14 14:42:51;;;;;;;9.38;4.57;;;;;;;;;;4963033;28;20022;-72
2023/10/14 14:45:25;;;;;;;13.13;5.40;;;;;;;;;;4957778;28;20031;-72
2023/10/14 14:47:53;;;;;;;15.10;6.27;;;;;;;;;;4965111;28;20026;-72
2023/10/14 14:50:20;;;;;;;13.85;4.07;;;;;;;;;;4961816;28;20045;-72
2023/10/14 14:52:50;;;;;;;11.93;4.45;;;;;;;;;;4965387;28;20050;-72
2023/10/14 14:55:17;;;;;;;14.05;6.00;;;;;;;;;;4958983;28;20049;-72
2023/10/14 14:58:04;;;;;;;15.18;4.60;;;;;;;;;;4961590;28;20042;-71
2023/10/14 15:00:30;;;;;;;12.93;4.28;;;;;;;;;;4966262;28;20173;-68
2023/10/14 15:02:57;;;;;;;11.68;3.63;;;;;;;;;;4973916;28;20061;-68
2023/10/14 15:05:29;;;;;;;13.40;4.88;;;;;;;;;;4973838;28;20034;-68
2023/10/14 15:07:57;;;;;;;14.30;4.75;;;;;;;;;;4958072;28;20033;-67
2023/10/14 15:10:24;;;;;;;13.02;3.92;;;;;;;;;;4957753;28;20256;-67